Airfield :
LOGIN :

Register | Disclaimer

   EN    FR    IT 

 










Legend :    VFR   Marginal VFR   IFR   Intensive IFR   Very Intensive IFR
Visi :
Ceiling :
>= 8 km
>= 3000ft
5 to 8 km
1000 to 3000 ft
1500m to 5 km
500 to 1000 ft
800 to 1500m
200 to 500 ft
< 800m
< 200 ft
Symbols :   Thunderstorms  Fog  Heavy snow  Heavy precipitations  Wind > 20 kt
SIGMETs :     Misc.  Thunderstorms  Icing  Turbulence  Mountain Waves  Volcanic Ashes






- Airport Elevation : 277 ft
- IATA code : JER


EGJJ - Jersey

CURRENT METAR :
  • 021020Z 31008KT 280V350 9999 SCT026 BKN040 09/02 Q1019

EXPIRED METARs :
  • 020950Z 33005KT 290V030 9999 FEW034 BKN040 09/01 Q1019
  • 020920Z 35007KT 320V040 9999 BKN040 09/M00 Q1019
  • 020850Z 36005KT 310V030 9999 BKN042 09/M01 Q1019
  • 020820Z AUTO 35009KT 9999 OVC044/// 08/M01 Q1019
  • 020750Z 36008KT 330V030 9999 BKN040 08/M00 Q1019

TAF TAF EGJJ
Valid from the 02 at 09:00 until the 02 at 18:00 UTC


020754Z 0209/0218 33009KT 9999 FEW030 BKN040
ATIS : +44 1534 498 073



MET'MAP, your aeronautical weather chart ! - Copyright ORBIFLY December 2007 - Disclaimer

ORBIFLY MET'MAP TEAM :

Programming & Development : Alexandra Zaïnal
Concept & original design : Baudouin d'Aumeries
Assistance for programming : Marc-Olivier Méhu
Technical & hardware support : Manuel Goepfert

Contact : metmap@orbifly.com




SOURCES & CREDITS :

   NOAA